Time;durP1;ratioP1;P1;durP2;ratioP2;P2;SDS_P1;SDS_P2;PMS_P1;PMS_P2;Temp;Humidity;BMP_temperature;BMP_pressure;BME280_temperature;BME280_humidity;BME280_pressure;Samples;Min_cycle;Max_cycle;Signal;HPM_P1;HPM_P2
2022/09/27 00:01:13;;;;;;;10.65;1.63;;;;;;;15.78;100.00;99501.53;5008697;28;20272;-56
2022/09/27 00:03:39;;;;;;;5.00;1.55;;;;;;;15.77;100.00;99503.41;5019553;28;20043;-53
2022/09/27 00:06:12;;;;;;;13.30;2.28;;;;;;;15.67;100.00;99505.22;5023047;28;20032;-56
2022/09/27 00:08:38;;;;;;;13.20;1.37;;;;;;;15.70;100.00;99505.53;5022889;28;20049;-55
2022/09/27 00:11:08;;;;;;;12.90;2.77;;;;;;;15.85;100.00;99504.78;4997611;28;20385;-55
2022/09/27 00:13:34;;;;;;;8.53;1.43;;;;;;;15.86;100.00;99514.50;5004262;28;20269;-54
2022/09/27 00:16:04;;;;;;;6.93;1.73;;;;;;;15.84;100.00;99516.66;5002221;28;20298;-57
2022/09/27 00:18:31;;;;;;;7.77;1.63;;;;;;;15.74;100.00;99512.00;5012444;28;20258;-52
2022/09/27 00:21:05;;;;;;;11.33;2.00;;;;;;;15.92;100.00;99520.75;5010017;28;20288;-53
2022/09/27 00:23:30;;;;;;;5.47;1.33;;;;;;;16.07;100.00;99525.38;4995923;28;20292;-49
2022/09/27 00:25:57;;;;;;;14.13;2.28;;;;;;;15.88;100.00;99533.13;5011710;28;20296;-53
2022/09/27 00:28:24;;;;;;;10.40;1.53;;;;;;;15.54;100.00;99528.06;5013977;28;20043;-51
2022/09/27 00:30:51;;;;;;;6.17;1.33;;;;;;;15.55;100.00;99529.69;5010681;28;20277;-54
2022/09/27 00:33:16;;;;;;;4.43;1.55;;;;;;;15.55;100.00;99530.53;5016521;28;20280;-53
2022/09/27 00:35:43;;;;;;;6.73;1.17;;;;;;;15.62;100.00;99536.47;5011787;28;20068;-54
2022/09/27 00:38:09;;;;;;;3.60;1.30;;;;;;;15.98;100.00;99537.78;4989855;28;20061;-52
2022/09/27 00:40:35;;;;;;;10.50;1.40;;;;;;;15.65;100.00;99524.38;4981304;28;20077;-53
2022/09/27 00:43:00;;;;;;;7.15;1.65;;;;;;;15.78;100.00;99526.59;4993745;28;20039;-54
2022/09/27 00:45:26;;;;;;;8.80;1.37;;;;;;;15.53;100.00;99521.88;4989037;28;20039;-54
2022/09/27 00:48:02;;;;;;;13.13;1.97;;;;;;;15.74;100.00;99517.41;4998199;28;20314;-52
2022/09/27 00:50:49;;;;;;;5.40;1.38;;;;;;;15.60;100.00;99508.19;5007161;28;20047;-57
2022/09/27 00:53:22;;;;;;;11.00;1.77;;;;;;;15.79;100.00;99516.63;5000644;28;20038;-52
2022/09/27 00:55:53;;;;;;;6.63;1.50;;;;;;;15.48;100.00;99511.09;4989202;28;20272;-54
2022/09/27 00:58:23;;;;;;;9.20;1.20;;;;;;;15.45;100.00;99519.66;4994613;28;20395;-55
2022/09/27 01:00:53;;;;;;;3.33;1.70;;;;;;;15.84;100.00;99524.72;4991822;28;20341;-56
2022/09/27 01:03:45;;;;;;;11.83;0.90;;;;;;;15.34;100.00;99530.38;4983986;28;20284;-55
2022/09/27 01:06:11;;;;;;;6.90;1.20;;;;;;;15.52;100.00;99533.75;4986686;28;20284;-51
2022/09/27 01:08:37;;;;;;;7.75;1.27;;;;;;;15.66;100.00;99534.09;5003393;28;20270;-54
2022/09/27 01:11:21;;;;;;;10.38;2.28;;;;;;;15.48;100.00;99532.66;5007353;28;20090;-56
2022/09/27 01:14:23;;;;;;;4.90;1.10;;;;;;;15.47;100.00;99536.41;4982352;28;20031;-55
2022/09/27 01:17:17;;;;;;;13.50;1.33;;;;;;;15.83;100.00;99536.59;5020855;28;20283;-53
2022/09/27 01:19:59;;;;;;;9.40;1.47;;;;;;;15.28;100.00;99536.81;4981374;28;20780;-52
2022/09/27 01:22:32;;;;;;;6.07;1.10;;;;;;;15.67;100.00;99540.28;5004589;28;20333;-52
2022/09/27 01:25:04;;;;;;;5.73;1.37;;;;;;;15.73;100.00;99536.56;5011758;28;20274;-55
2022/09/27 01:27:53;;;;;;;7.30;1.57;;;;;;;15.74;100.00;99548.94;5003275;28;20292;-56
2022/09/27 01:30:27;;;;;;;9.00;1.90;;;;;;;15.96;100.00;99548.00;5005258;28;20266;-55
2022/09/27 01:33:09;;;;;;;8.10;1.83;;;;;;;16.01;100.00;99548.81;4997217;28;20354;-57
2022/09/27 01:36:04;;;;;;;9.20;1.60;;;;;;;15.47;100.00;99547.19;5008412;28;20292;-55
2022/09/27 01:38:40;;;;;;;13.87;1.70;;;;;;;15.90;100.00;99545.28;5016492;28;20249;-55
2022/09/27 01:41:22;;;;;;;10.27;2.80;;;;;;;15.85;100.00;99544.44;4989974;28;20287;-54
2022/09/27 01:44:13;;;;;;;8.70;1.87;;;;;;;15.33;100.00;99544.09;4993129;28;20268;-56
2022/09/27 01:46:49;;;;;;;5.10;1.20;;;;;;;15.60;100.00;99548.59;5001815;28;20320;-54
2022/09/27 01:49:52;;;;;;;11.47;2.50;;;;;;;15.73;100.00;99547.34;5008236;28;20301;-56
2022/09/27 01:52:22;;;;;;;18.87;2.83;;;;;;;15.95;100.00;99554.47;5005667;28;20276;-54
2022/09/27 01:54:54;;;;;;;27.57;5.83;;;;;;;15.97;100.00;99549.63;4976827;28;20340;-54
2022/09/27 01:57:41;;;;;;;28.70;7.33;;;;;;;15.93;100.00;99551.25;5023222;28;20342;-56
2022/09/27 02:00:13;;;;;;;17.25;4.85;;;;;;;16.04;100.00;99552.88;4987908;28;20284;-50
2022/09/27 02:02:44;;;;;;;19.70;3.58;;;;;;;15.98;100.00;99551.25;5006169;28;20043;-56
2022/09/27 02:05:36;;;;;;;13.23;2.13;;;;;;;15.93;100.00;99543.16;4999360;28;20101;-54
2022/09/27 02:08:30;;;;;;;7.73;1.17;;;;;;;15.70;100.00;99545.16;5014317;28;20271;-57
2022/09/27 02:11:03;;;;;;;17.60;4.23;;;;;;;15.55;100.00;99544.00;4996041;28;20261;-51
2022/09/27 02:13:46;;;;;;;18.53;4.17;;;;;;;15.92;100.00;99550.41;4992123;28;20355;-52
2022/09/27 02:16:59;;;;;;;19.07;4.20;;;;;;;15.65;100.00;99555.88;4998102;28;20281;-48
2022/09/27 02:19:26;;;;;;;16.30;3.60;;;;;;;15.12;100.00;99548.53;4992286;28;20281;-53
2022/09/27 02:22:26;;;;;;;14.57;3.53;;;;;;;15.46;100.00;99540.97;5002031;28;20293;-54
2022/09/27 02:25:13;;;;;;;24.33;5.33;;;;;;;15.28;100.00;99536.81;4993978;28;20042;-51
2022/09/27 02:27:49;;;;;;;19.27;4.88;;;;;;;15.30;100.00;99545.44;4998359;28;20297;-55
2022/09/27 02:30:18;;;;;;;32.60;8.03;;;;;;;15.11;100.00;99552.31;5007556;28;20027;-53
2022/09/27 02:32:49;;;;;;;47.33;9.17;;;;;;;15.22;100.00;99554.00;5015535;28;20265;-56
2022/09/27 02:35:24;;;;;;;47.45;9.82;;;;;;;14.93;100.00;99546.22;5007017;28;20285;-54
2022/09/27 02:37:50;;;;;;;48.30;10.93;;;;;;;14.94;100.00;99549.75;4998909;28;20034;-56
2022/09/27 02:40:16;;;;;;;55.72;10.82;;;;;;;15.09;100.00;99546.38;4971612;28;20799;-56
2022/09/27 02:42:43;;;;;;;54.22;10.77;;;;;;;14.76;100.00;99539.09;5002621;28;20045;-53
2022/09/27 02:45:11;;;;;;;57.27;10.40;;;;;;;14.93;100.00;99540.84;4995387;28;20041;-55
2022/09/27 02:48:05;;;;;;;48.57;11.87;;;;;;;14.76;100.00;99541.81;5013332;28;20348;-54
2022/09/27 02:51:03;;;;;;;43.90;8.43;;;;;;;14.68;100.00;99539.53;5013275;28;20273;-58
2022/09/27 02:53:59;;;;;;;25.87;5.17;;;;;;;14.83;100.00;99546.94;4987668;28;20277;-56
2022/09/27 02:57:00;;;;;;;41.40;6.63;;;;;;;14.89;100.00;99553.19;4995294;28;20889;-55
2022/09/27 03:00:04;;;;;;;21.10;4.47;;;;;;;14.88;100.00;99544.31;4990682;28;20359;-55
2022/09/27 03:02:51;;;;;;;;;;;;;;;14.57;100.00;99537.81;5008362;28;20264;-54
2022/09/27 03:05:46;;;;;;;9.63;1.85;;;;;;;14.43;100.00;99532.81;5011787;28;19920;-54
2022/09/27 03:08:13;;;;;;;8.27;1.60;;;;;;;14.57;100.00;99544.00;4994897;28;20030;-52
2022/09/27 03:10:40;;;;;;;15.90;3.40;;;;;;;14.58;100.00;99536.75;4985320;28;20266;-56
2022/09/27 03:13:05;;;;;;;20.20;2.10;;;;;;;14.20;100.00;99531.25;5013832;28;20292;-52
2022/09/27 03:15:32;;;;;;;11.30;1.37;;;;;;;14.40;100.00;99527.13;5008944;28;20043;-56
2022/09/27 03:18:01;;;;;;;16.60;2.23;;;;;;;14.43;100.00;99526.66;5013293;28;20440;-52
2022/09/27 03:20:45;;;;;;;15.83;1.83;;;;;;;14.42;100.00;99530.41;5000449;28;20295;-54
2022/09/27 03:23:16;;;;;;;22.17;2.23;;;;;;;14.42;100.00;99539.28;5009959;28;20292;-54
2022/09/27 03:25:42;;;;;;;10.43;2.10;;;;;;;14.57;100.00;99548.56;4982387;28;20281;-54
2022/09/27 03:28:09;;;;;;;14.87;2.37;;;;;;;14.77;100.00;99543.41;5003941;28;20032;-56
2022/09/27 03:30:36;;;;;;;;;;;;;;;14.52;100.00;99545.81;4994804;28;20261;-53
2022/09/27 03:33:03;;;;;;;14.53;2.53;;;;;;;14.63;100.00;99552.94;5017224;28;19921;-55
2022/09/27 03:35:38;;;;;;;10.37;3.27;;;;;;;14.59;100.00;99562.56;5011413;28;20114;-56
2022/09/27 03:38:05;;;;;;;48.67;8.80;;;;;;;14.72;100.00;99569.47;5015409;28;20270;-57
2022/09/27 03:40:31;;;;;;;54.47;9.80;;;;;;;14.10;100.00;99569.56;5005725;28;20303;-54
2022/09/27 03:42:57;;;;;;;50.47;9.37;;;;;;;14.39;100.00;99558.59;4984264;28;20521;-54
2022/09/27 03:45:23;;;;;;;35.67;6.63;;;;;;;14.92;100.00;99555.38;4992619;28;20277;-54
2022/09/27 03:47:49;;;;;;;25.17;5.78;;;;;;;14.70;100.00;99558.13;4999430;28;20270;-52
2022/09/27 03:50:14;;;;;;;24.90;6.05;;;;;;;14.44;100.00;99549.78;5023358;28;20085;-51
2022/09/27 03:52:42;;;;;;;16.17;3.50;;;;;;;14.33;100.00;99548.88;4979671;28;20069;-53
2022/09/27 03:55:08;;;;;;;18.17;3.77;;;;;;;14.47;100.00;99547.38;4982595;28;20043;-55
2022/09/27 03:57:34;;;;;;;27.50;4.72;;;;;;;14.94;100.00;99541.66;4988331;28;20273;-56
2022/09/27 04:00:00;;;;;;;24.02;5.70;;;;;;;14.80;100.00;99549.34;4987835;28;20032;-55
2022/09/27 04:02:38;;;;;;;18.57;3.90;;;;;;;14.87;100.00;99552.66;4988397;28;20043;-55
2022/09/27 04:05:24;;;;;;;23.27;4.40;;;;;;;15.02;100.00;99530.41;4971218;28;20265;-51
2022/09/27 04:07:55;;;;;;;7.50;2.43;;;;;;;14.94;100.00;99531.69;4996706;28;20285;-55
2022/09/27 04:10:21;;;;;;;12.83;1.90;;;;;;;15.09;100.00;99527.53;4986975;28;20271;-55
2022/09/27 04:12:48;;;;;;;16.17;3.20;;;;;;;14.77;100.00;99529.13;4982042;28;20304;-56
2022/09/27 04:15:14;;;;;;;18.95;3.90;;;;;;;15.04;100.00;99530.97;4967416;28;20307;-54
2022/09/27 04:17:45;;;;;;;16.93;3.60;;;;;;;14.61;100.00;99533.53;4988459;28;20035;-55
2022/09/27 04:20:29;;;;;;;14.20;2.73;;;;;;;14.64;100.00;99533.03;5003298;28;20327;-55
2022/09/27 04:22:57;;;;;;;19.07;4.87;;;;;;;14.84;100.00;99539.69;4991240;28;20329;-52
2022/09/27 04:25:22;;;;;;;39.43;9.87;;;;;;;14.58;100.00;99547.50;4989473;28;20277;-54
2022/09/27 04:27:54;;;;;;;24.70;7.37;;;;;;;14.57;100.00;99551.25;4987868;28;20035;-54
2022/09/27 04:30:21;;;;;;;9.47;2.10;;;;;;;13.90;100.00;99548.59;4979448;28;20272;-55
2022/09/27 04:33:09;;;;;;;5.60;1.30;;;;;;;14.29;100.00;99553.09;4972561;28;20269;-53
2022/09/27 04:38:33;;;;;;;7.95;1.50;;;;;;;13.80;100.00;99551.97;4990401;28;20303;-56
2022/09/27 04:41:00;;;;;;;2.00;0.80;;;;;;;14.14;100.00;99557.25;4992340;28;20039;-52
2022/09/27 04:43:30;;;;;;;15.33;1.63;;;;;;;13.63;100.00;99557.38;4979453;28;20057;-56
2022/09/27 04:45:57;;;;;;;9.40;1.20;;;;;;;13.60;100.00;99569.44;4954368;28;20806;-54
2022/09/27 04:48:23;;;;;;;13.38;1.58;;;;;;;13.66;100.00;99581.06;4968015;28;20405;-53
2022/09/27 04:50:57;;;;;;;29.05;3.08;;;;;;;13.55;100.00;99587.38;4974441;28;20043;-53
2022/09/27 04:53:23;;;;;;;12.90;1.85;;;;;;;13.47;100.00;99572.47;4986875;28;20035;-57
2022/09/27 04:55:52;;;;;;;3.90;1.35;;;;;;;13.53;100.00;99568.78;4954024;28;20027;-57
2022/09/27 04:58:17;;;;;;;8.43;2.63;;;;;;;13.65;100.00;99582.13;4977831;28;20027;-55
2022/09/27 05:00:43;;;;;;;14.90;1.73;;;;;;;13.94;100.00;99589.25;4977388;28;20345;-53
2022/09/27 05:03:34;;;;;;;8.52;1.65;;;;;;;14.00;100.00;99581.00;4969178;28;20052;-55
2022/09/27 05:06:08;;;;;;;6.57;1.93;;;;;;;14.12;100.00;99591.63;4992976;28;20033;-54
2022/09/27 05:08:34;;;;;;;8.75;1.77;;;;;;;13.83;100.00;99593.66;4990678;28;20292;-53
2022/09/27 05:11:21;;;;;;;11.53;1.63;;;;;;;13.71;100.00;99583.03;4969475;28;20048;-51
2022/09/27 05:14:05;;;;;;;6.97;1.37;;;;;;;14.19;100.00;99591.47;4992146;28;20272;-54
2022/09/27 05:16:38;;;;;;;5.00;1.47;;;;;;;13.57;100.00;99579.88;4981636;28;20281;-53
2022/09/27 05:19:22;;;;;;;7.70;1.03;;;;;;;13.43;100.00;99582.09;4981312;28;20300;-56
2022/09/27 05:22:05;;;;;;;9.63;2.50;;;;;;;13.42;100.00;99583.13;4980074;28;20292;-57
2022/09/27 05:24:32;;;;;;;7.50;1.67;;;;;;;13.38;100.00;99572.03;4968702;28;20280;-56
2022/09/27 05:26:58;;;;;;;;;;;;;;;13.65;100.00;99571.38;4971688;28;20070;-54
2022/09/27 05:29:25;;;;;;;18.63;1.90;;;;;;;13.83;100.00;99570.28;4996343;28;19985;-53
2022/09/27 05:32:04;;;;;;;4.57;1.33;;;;;;;13.95;100.00;99564.00;4995577;28;20289;-54
2022/09/27 05:34:31;;;;;;;;;;;;;;;13.43;100.00;99566.78;4961419;28;20118;-54
2022/09/27 05:36:57;;;;;;;7.47;1.55;;;;;;;13.58;100.00;99565.38;4970111;28;19949;-52
2022/09/27 05:39:23;;;;;;;4.85;1.23;;;;;;;13.74;100.00;99564.53;4991350;28;20027;-54
2022/09/27 05:41:49;;;;;;;10.05;1.50;;;;;;;13.66;100.00;99553.41;4967345;28;20039;-51
2022/09/27 05:44:16;;;;;;;4.27;1.40;;;;;;;13.52;100.00;99569.06;4989531;28;20047;-52
2022/09/27 05:46:51;;;;;;;9.13;1.95;;;;;;;13.76;100.00;99566.97;4990888;28;20034;-54
2022/09/27 05:49:19;;;;;;;;;;;;;;;13.77;100.00;99563.22;4971602;28;20063;-57
2022/09/27 05:51:46;;;;;;;8.68;2.50;;;;;;;13.58;100.00;99582.28;5005018;28;19921;-54
2022/09/27 05:54:11;;;;;;;13.20;1.90;;;;;;;14.11;100.00;99581.13;4994334;28;20043;-52
2022/09/27 05:56:38;;;;;;;7.32;1.92;;;;;;;13.86;100.00;99582.41;5008051;28;20039;-52
2022/09/27 05:59:20;;;;;;;18.92;2.35;;;;;;;14.12;100.00;99591.63;4993984;28;20039;-53
2022/09/27 06:02:10;;;;;;;7.17;2.00;;;;;;;13.85;100.00;99587.00;5006236;28;20050;-55
2022/09/27 06:04:58;;;;;;;8.53;1.63;;;;;;;13.99;100.00;99597.38;5011904;28;20276;-56
2022/09/27 06:07:48;;;;;;;5.18;1.65;;;;;;;13.81;100.00;99598.47;4986442;28;20283;-54
2022/09/27 06:10:30;;;;;;;6.00;1.63;;;;;;;14.04;100.00;99606.31;5008913;28;20041;-54
2022/09/27 06:13:01;;;;;;;5.93;1.60;;;;;;;13.71;100.00;99602.63;4993425;28;20273;-57
2022/09/27 06:15:40;;;;;;;8.30;1.60;;;;;;;13.76;100.00;99599.22;4976857;28;20268;-53
2022/09/27 06:18:09;;;;;;;9.27;1.70;;;;;;;13.74;100.00;99594.09;5020265;28;20298;-54
2022/09/27 06:20:36;;;;;;;10.83;1.67;;;;;;;13.96;100.00;99597.88;5004174;28;20288;-54
2022/09/27 06:23:02;;;;;;;;;;;;;;;13.67;100.00;99596.13;5024781;28;20274;-54
2022/09/27 06:25:28;;;;;;;5.17;1.77;;;;;;;14.05;100.00;99599.88;5004858;28;19943;-54
2022/09/27 06:28:08;;;;;;;10.13;2.40;;;;;;;13.74;100.00;99593.28;5018930;28;20276;-54
2022/09/27 06:30:42;;;;;;;4.53;1.93;;;;;;;14.02;100.00;99596.88;5013787;28;20254;-54
2022/09/27 06:33:19;;;;;;;4.87;2.53;;;;;;;14.52;100.00;99599.59;5010123;28;20288;-56
2022/09/27 06:35:49;;;;;;;7.77;2.10;;;;;;;14.10;100.00;99601.00;5005257;28;20267;-55
2022/09/27 06:38:17;;;;;;;7.30;2.20;;;;;;;14.34;100.00;99604.28;4990037;28;20272;-56
2022/09/27 06:40:50;;;;;;;6.43;2.20;;;;;;;14.72;100.00;99609.81;5021881;28;20287;-53
2022/09/27 06:43:41;;;;;;;9.13;2.67;;;;;;;14.57;100.00;99605.06;4983601;28;20345;-53
2022/09/27 06:46:27;;;;;;;5.63;2.27;;;;;;;14.23;100.00;99602.50;4983294;28;20269;-54
2022/09/27 06:49:13;;;;;;;8.90;2.20;;;;;;;14.44;100.00;99625.91;5001059;28;20299;-52
2022/09/27 06:51:41;;;;;;;15.17;2.90;;;;;;;14.59;100.00;99613.69;4992506;28;20285;-56
2022/09/27 06:54:06;;;;;;;18.17;3.13;;;;;;;14.18;100.00;99612.13;5015042;28;20280;-56
2022/09/27 06:56:31;;;;;;;8.23;2.07;;;;;;;14.48;100.00;99607.38;4993663;28;20070;-56
2022/09/27 07:01:42;;;;;;;8.87;1.77;;;;;;;15.05;100.00;99618.75;4990604;28;20043;-55
2022/09/27 07:04:26;;;;;;;8.20;2.30;;;;;;;14.51;100.00;99619.50;5005312;28;20342;-55
2022/09/27 07:07:03;;;;;;;4.67;1.60;;;;;;;14.79;100.00;99626.56;4996019;28;20754;-55
2022/09/27 07:09:33;;;;;;;7.27;1.80;;;;;;;14.66;100.00;99619.69;5006242;28;20262;-55
2022/09/27 07:11:59;;;;;;;12.05;2.30;;;;;;;14.46;100.00;99621.06;4979552;28;20364;-55
2022/09/27 07:14:25;;;;;;;6.38;1.77;;;;;;;14.41;100.00;99626.41;5002366;28;20060;-55
2022/09/27 07:16:52;;;;;;;8.43;1.90;;;;;;;14.69;100.00;99621.88;4984331;28;20037;-55
2022/09/27 07:19:18;;;;;;;7.07;1.58;;;;;;;14.48;100.00;99624.31;4962763;28;20314;-56
2022/09/27 07:21:44;;;;;;;5.63;1.73;;;;;;;14.41;100.00;99636.34;5002096;28;20061;-53
2022/09/27 07:24:10;;;;;;;4.03;1.65;;;;;;;14.74;100.00;99624.63;4997356;28;20088;-54
2022/09/27 07:26:37;;;;;;;5.17;2.07;;;;;;;15.25;100.00;99638.84;4980879;28;20037;-51
2022/09/27 07:29:05;;;;;;;8.27;1.83;;;;;;;15.27;100.00;99645.63;5000678;28;20269;-53
2022/09/27 07:31:31;;;;;;;13.25;2.15;;;;;;;14.66;100.00;99638.53;4996742;28;20281;-54
2022/09/27 07:33:56;;;;;;;9.13;2.33;;;;;;;14.55;100.00;99640.28;5002374;28;20062;-54
2022/09/27 07:36:22;;;;;;;7.22;1.90;;;;;;;14.84;100.00;99642.78;5014391;28;20104;-52
2022/09/27 07:38:47;;;;;;;7.97;2.70;;;;;;;14.88;100.00;99640.41;5010323;28;20054;-53
2022/09/27 07:41:16;;;;;;;9.40;2.27;;;;;;;14.69;100.00;99634.53;4994290;28;20026;-54
2022/09/27 07:43:45;;;;;;;5.72;2.83;;;;;;;15.14;100.00;99643.34;4997021;28;20342;-53
2022/09/27 07:46:12;;;;;;;5.80;1.53;;;;;;;15.02;100.00;99643.50;5003308;28;20038;-54
2022/09/27 07:48:52;;;;;;;11.37;2.00;;;;;;;15.19;100.00;99640.69;4992487;28;20281;-55
2022/09/27 07:51:32;;;;;;;7.03;1.50;;;;;;;14.71;100.00;99649.38;5001612;28;20287;-53
2022/09/27 07:54:07;;;;;;;5.53;2.63;;;;;;;14.41;100.00;99653.28;4995275;28;20266;-52
2022/09/27 07:56:44;;;;;;;6.53;1.90;;;;;;;14.45;100.00;99653.63;4998590;28;20276;-53
2022/09/27 07:59:11;;;;;;;4.93;1.77;;;;;;;15.18;100.00;99652.53;5002926;28;20281;-54
2022/09/27 08:01:38;;;;;;;6.43;2.10;;;;;;;14.77;100.00;99661.00;5010462;28;20284;-53
2022/09/27 08:04:04;;;;;;;11.87;2.07;;;;;;;14.99;100.00;99665.53;5002796;28;20053;-53
2022/09/27 08:06:30;;;;;;;11.40;2.13;;;;;;;15.03;100.00;99659.41;4984828;28;20288;-51
2022/09/27 08:08:58;;;;;;;5.15;1.63;;;;;;;14.98;100.00;99662.03;4998933;28;20332;-53
2022/09/27 08:11:25;;;;;;;10.77;2.20;;;;;;;14.75;100.00;99669.31;5005041;28;20065;-54
2022/09/27 08:13:52;;;;;;;5.37;1.63;;;;;;;14.41;100.00;99666.75;4999653;28;20288;-56
2022/09/27 08:16:21;;;;;;;38.37;2.97;;;;;;;14.04;100.00;99670.84;5018538;28;20271;-52
2022/09/27 08:19:05;;;;;;;24.57;3.00;;;;;;;14.28;100.00;99672.47;4994245;28;20276;-53
2022/09/27 08:21:45;;;;;;;46.97;5.20;;;;;;;22.58;100.00;99690.34;5004003;28;20281;-53
2022/09/27 08:24:15;;;;;;;8.80;3.60;;;;;;;21.91;100.00;99695.94;4995326;28;20269;-54
2022/09/27 08:27:04;;;;;;;37.87;4.30;;;;;;;17.63;100.00;99686.59;5020730;28;20284;-53
2022/09/27 08:29:47;;;;;;;14.00;2.80;;;;;;;24.67;100.00;99724.00;4994738;28;20727;-54
2022/09/27 08:32:15;;;;;;;16.70;3.25;;;;;;;26.12;86.20;99708.50;5005317;28;20271;-55
2022/09/27 08:34:42;;;;;;;23.47;4.30;;;;;;;24.15;100.00;99706.31;5000816;28;20039;-56
2022/09/27 08:37:08;;;;;;;24.35;4.65;;;;;;;24.13;100.00;99700.34;4986685;28;20303;-55
2022/09/27 08:39:34;;;;;;;15.88;4.05;;;;;;;22.17;100.00;99698.19;4983797;28;20041;-53
2022/09/27 08:42:18;;;;;;;12.02;4.90;;;;;;;21.91;100.00;99692.41;4992406;28;20089;-53
2022/09/27 08:44:54;;;;;;;31.77;5.97;;;;;;;21.88;100.00;99695.72;4989178;28;20034;-55
2022/09/27 08:47:32;;;;;;;14.00;5.23;;;;;;;21.48;100.00;99690.66;5001622;28;20368;-54
2022/09/27 08:50:33;;;;;;;11.20;5.30;;;;;;;21.00;100.00;99689.75;4982721;28;20285;-56
2022/09/27 08:53:12;;;;;;;16.10;5.50;;;;;;;21.43;100.00;99693.44;4990244;28;20281;-55
2022/09/27 08:56:06;;;;;;;12.97;5.57;;;;;;;20.80;100.00;99703.63;4994329;28;20807;-56
2022/09/27 08:58:47;;;;;;;21.43;6.80;;;;;;;20.36;100.00;99698.13;5020033;28;20268;-55
2022/09/27 09:01:23;;;;;;;20.37;5.70;;;;;;;21.57;100.00;99707.91;5001049;28;20291;-56
2022/09/27 09:04:00;;;;;;;11.93;4.88;;;;;;;20.91;100.00;99708.63;5010868;28;20352;-54
2022/09/27 09:06:32;;;;;;;23.67;6.73;;;;;;;21.43;100.00;99712.47;4995225;28;20035;-56
2022/09/27 09:09:36;;;;;;;37.00;8.00;;;;;;;20.78;100.00;99721.00;5011446;28;20273;-55
2022/09/27 09:12:47;;;;;;;14.97;3.70;;;;;;;20.67;100.00;99716.75;4989178;28;20272;-55
2022/09/27 09:15:53;;;;;;;7.80;2.23;;;;;;;20.80;100.00;99723.44;5003405;28;22061;-53
2022/09/27 09:18:33;;;;;;;3.67;2.07;;;;;;;20.27;100.00;99727.00;4993902;28;20285;-54
2022/09/27 09:21:34;;;;;;;15.90;4.40;;;;;;;20.92;100.00;99726.53;5004998;28;20288;-55
2022/09/27 09:24:20;;;;;;;22.20;7.73;;;;;;;20.65;100.00;99721.69;4995863;28;20281;-54
2022/09/27 09:27:04;;;;;;;19.87;6.10;;;;;;;20.27;100.00;99721.56;5001439;28;20291;-55
2022/09/27 09:30:24;;;;;;;33.07;9.17;;;;;;;21.91;100.00;99739.50;5014887;28;20280;-55
2022/09/27 09:33:34;;;;;;;33.80;8.77;;;;;;;20.73;100.00;99729.19;4999275;28;20279;-56
2022/09/27 09:36:20;;;;;;;38.00;7.83;;;;;;;21.19;100.00;99732.41;5014011;28;20322;-55
2022/09/27 09:38:53;;;;;;;38.63;5.53;;;;;;;20.81;100.00;99725.03;4996073;28;20276;-53
2022/09/27 09:41:28;;;;;;;30.13;9.13;;;;;;;20.54;100.00;99733.78;5020336;28;20293;-55
2022/09/27 09:44:00;;;;;;;31.20;4.97;;;;;;;20.12;100.00;99726.06;5013564;28;20288;-57
2022/09/27 09:46:25;;;;;;;24.23;3.80;;;;;;;20.15;100.00;99720.06;4981830;28;20277;-55
2022/09/27 09:49:06;;;;;;;21.67;4.67;;;;;;;20.20;100.00;99717.28;4991854;28;20269;-52
2022/09/27 09:51:43;;;;;;;20.70;3.20;;;;;;;20.64;100.00;99720.06;4990881;28;20282;-56
2022/09/27 09:54:15;;;;;;;8.70;1.53;;;;;;;19.72;100.00;99723.44;5000605;28;20277;-55
2022/09/27 09:56:46;;;;;;;3.67;1.73;;;;;;;20.16;100.00;99715.44;4982058;28;20273;-56
2022/09/27 09:59:34;;;;;;;15.73;3.13;;;;;;;20.44;100.00;99726.56;4963477;28;20352;-54
2022/09/27 10:02:33;;;;;;;13.13;2.30;;;;;;;20.53;100.00;99732.13;4997611;28;20301;-53
2022/09/27 10:05:13;;;;;;;16.47;3.80;;;;;;;20.13;100.00;99721.44;5005956;28;20265;-54
2022/09/27 10:07:39;;;;;;;19.87;3.57;;;;;;;20.75;100.00;99732.41;4975765;28;20269;-53
2022/09/27 10:10:09;;;;;;;11.15;3.20;;;;;;;20.73;100.00;99723.75;4986966;28;20330;-55
2022/09/27 10:12:55;;;;;;;11.77;1.90;;;;;;;21.23;100.00;99729.91;4973956;28;20051;-53
2022/09/27 10:15:29;;;;;;;6.17;1.60;;;;;;;21.22;100.00;99726.41;4991021;28;20292;-55
2022/09/27 10:17:58;;;;;;;3.03;1.47;;;;;;;21.77;100.00;99725.03;4987573;28;20282;-54
2022/09/27 10:20:48;;;;;;;7.97;1.47;;;;;;;21.43;100.00;99724.19;4987511;28;20415;-52
2022/09/27 10:23:21;;;;;;;6.00;1.53;;;;;;;20.40;100.00;99739.91;4996275;28;20307;-56
2022/09/27 10:26:09;;;;;;;6.37;1.77;;;;;;;20.88;100.00;99732.84;4995090;28;20341;-53
2022/09/27 10:28:46;;;;;;;30.60;7.27;;;;;;;21.00;100.00;99744.09;4992814;28;20274;-51
2022/09/27 10:31:17;;;;;;;19.63;5.17;;;;;;;20.70;100.00;99737.91;4993013;28;20340;-55
2022/09/27 10:34:06;;;;;;;23.40;4.40;;;;;;;21.27;100.00;99739.91;4988820;28;20301;-53
2022/09/27 10:36:44;;;;;;;18.37;5.20;;;;;;;20.97;100.00;99743.88;4992650;28;20329;-52
2022/09/27 10:39:22;;;;;;;25.92;6.40;;;;;;;21.14;100.00;99740.66;4986962;28;20266;-54
2022/09/27 10:41:48;;;;;;;19.87;4.93;;;;;;;20.43;100.00;99735.81;4986736;28;20033;-54
2022/09/27 10:44:28;;;;;;;9.77;2.67;;;;;;;21.39;100.00;99744.91;4978563;28;20065;-54
2022/09/27 10:47:09;;;;;;;17.13;4.10;;;;;;;21.29;100.00;99735.00;4987288;28;20280;-56
2022/09/27 10:49:45;;;;;;;27.10;6.73;;;;;;;21.49;100.00;99739.31;5006182;28;20050;-50
2022/09/27 10:52:27;;;;;;;42.13;8.90;;;;;;;21.34;100.00;99745.00;4983656;28;20276;-52
2022/09/27 10:54:56;;;;;;;24.60;6.00;;;;;;;20.57;100.00;99742.13;4973400;28;20289;-51
2022/09/27 10:57:27;;;;;;;20.27;5.97;;;;;;;20.52;100.00;99739.50;4972745;28;20532;-54
2022/09/27 10:59:58;;;;;;;20.47;4.00;;;;;;;20.37;100.00;99737.75;4986797;28;20312;-54
2022/09/27 11:02:24;;;;;;;14.60;3.07;;;;;;;20.90;100.00;99749.66;4980930;28;20297;-53
2022/09/27 11:05:11;;;;;;;11.07;4.07;;;;;;;20.21;100.00;99734.41;4970882;28;20357;-55
2022/09/27 11:07:49;;;;;;;30.23;6.50;;;;;;;20.73;100.00;99750.91;4984260;28;20265;-52
2022/09/27 11:10:22;;;;;;;24.10;8.00;;;;;;;20.56;100.00;99745.16;4991775;28;20273;-55
2022/09/27 11:13:11;;;;;;;35.43;8.10;;;;;;;20.79;100.00;99740.78;4991413;28;20261;-53
2022/09/27 11:16:07;;;;;;;33.40;7.40;;;;;;;20.20;100.00;99746.34;4995843;28;20275;-53
2022/09/27 11:19:01;;;;;;;28.17;5.67;;;;;;;20.01;100.00;99740.81;4990519;28;20287;-55
2022/09/27 11:21:55;;;;;;;9.17;2.30;;;;;;;19.31;100.00;99734.56;5003151;28;20300;-55
2022/09/27 11:24:47;;;;;;;32.27;6.03;;;;;;;19.33;100.00;99744.03;4991332;28;20341;-53
2022/09/27 11:27:53;;;;;;;71.20;6.43;;;;;;;18.96;100.00;99750.72;4987085;28;20266;-53
2022/09/27 11:30:28;;;;;;;200.00;11.17;;;;;;;19.04;100.00;99752.88;4955945;28;20278;-54
2022/09/27 11:33:26;;;;;;;4.63;1.37;;;;;;;18.61;100.00;99753.28;5001770;28;20292;-55
2022/09/27 11:36:27;;;;;;;0.37;0.37;;;;;;;19.07;100.00;99754.22;4993129;28;20273;-55
2022/09/27 11:39:03;;;;;;;0.10;0.10;;;;;;;18.97;100.00;99752.34;4990684;28;20261;-56
2022/09/27 11:41:58;;;;;;;3.20;0.93;;;;;;;19.72;100.00;99747.84;4971785;28;20898;-54
2022/09/27 11:45:10;;;;;;;0.20;0.20;;;;;;;19.45;100.00;99740.16;4999978;28;20271;-54
2022/09/27 11:48:02;;;;;;;0.40;0.40;;;;;;;19.33;100.00;99735.88;4974191;28;20280;-56
2022/09/27 11:50:50;;;;;;;1.63;1.53;;;;;;;19.20;100.00;99745.44;4981484;28;20341;-54
2022/09/27 11:53:34;;;;;;;1.40;1.30;;;;;;;19.45;100.00;99738.25;4952301;29;20300;-53
2022/09/27 11:56:57;;;;;;;1.93;0.87;;;;;;;19.17;100.00;99737.09;4950996;29;20324;-56
2022/09/27 11:59:32;;;;;;;0.10;0.10;;;;;;;19.80;100.00;99732.03;4983236;28;20272;-55
2022/09/27 12:02:01;;;;;;;0.00;0.00;;;;;;;19.55;100.00;99723.81;4977519;28;20287;-55
2022/09/27 12:05:00;;;;;;;0.10;0.10;;;;;;;19.35;100.00;99728.28;4958012;29;20262;-54
2022/09/27 12:07:33;;;;;;;0.10;0.10;;;;;;;19.78;100.00;99724.16;4950555;29;20278;-57
2022/09/27 12:10:08;;;;;;;0.10;0.10;;;;;;;19.73;100.00;99724.22;4953050;29;20375;-55